sensor_id;sensor_type;location;lat;lon;timestamp;temperature;humidity
1383;DHT22;685;47.196;11.880;2022-09-25T00:00:52;11.10;99.90
1383;DHT22;685;47.196;11.880;2022-09-25T00:03:22;11.10;99.90
1383;DHT22;685;47.196;11.880;2022-09-25T00:05:50;11.10;99.90
1383;DHT22;685;47.196;11.880;2022-09-25T00:08:17;11.10;99.90
1383;DHT22;685;47.196;11.880;2022-09-25T00:10:46;11.00;99.90
1383;DHT22;685;47.196;11.880;2022-09-25T00:13:14;10.90;99.90
1383;DHT22;685;47.196;11.880;2022-09-25T00:15:45;10.90;99.90
1383;DHT22;685;47.196;11.880;2022-09-25T00:18:13;11.00;99.90
1383;DHT22;685;47.196;11.880;2022-09-25T00:20:41;11.00;99.90
1383;DHT22;685;47.196;11.880;2022-09-25T00:23:07;11.00;99.90
1383;DHT22;685;47.196;11.880;2022-09-25T00:25:34;11.00;99.90
1383;DHT22;685;47.196;11.880;2022-09-25T00:28:01;10.90;99.90
1383;DHT22;685;47.196;11.880;2022-09-25T00:30:28;11.00;99.90
1383;DHT22;685;47.196;11.880;2022-09-25T00:32:55;11.00;99.90
1383;DHT22;685;47.196;11.880;2022-09-25T00:35:22;11.00;99.90
1383;DHT22;685;47.196;11.880;2022-09-25T00:37:50;11.00;99.90
1383;DHT22;685;47.196;11.880;2022-09-25T00:40:17;11.00;99.90
1383;DHT22;685;47.196;11.880;2022-09-25T00:42:45;10.80;99.90
1383;DHT22;685;47.196;11.880;2022-09-25T00:45:16;10.70;99.90
1383;DHT22;685;47.196;11.880;2022-09-25T00:47:55;10.70;99.90
1383;DHT22;685;47.196;11.880;2022-09-25T00:50:29;10.70;99.90
1383;DHT22;685;47.196;11.880;2022-09-25T00:53:03;10.90;99.90
1383;DHT22;685;47.196;11.880;2022-09-25T00:55:32;11.00;99.90
1383;DHT22;685;47.196;11.880;2022-09-25T00:58:01;11.10;99.90
1383;DHT22;685;47.196;11.880;2022-09-25T01:00:29;11.20;99.90
1383;DHT22;685;47.196;11.880;2022-09-25T01:02:56;11.20;99.90
1383;DHT22;685;47.196;11.880;2022-09-25T01:05:27;11.20;99.90
1383;DHT22;685;47.196;11.880;2022-09-25T01:07:55;11.20;99.90
1383;DHT22;685;47.196;11.880;2022-09-25T01:10:25;11.30;99.90
1383;DHT22;685;47.196;11.880;2022-09-25T01:12:53;11.30;99.90
1383;DHT22;685;47.196;11.880;2022-09-25T01:15:24;11.30;99.90
1383;DHT22;685;47.196;11.880;2022-09-25T01:18:00;11.30;99.90
1383;DHT22;685;47.196;11.880;2022-09-25T01:21:00;11.20;99.90
1383;DHT22;685;47.196;11.880;2022-09-25T01:27:04;10.70;99.90
1383;DHT22;685;47.196;11.880;2022-09-25T01:29:36;10.70;99.90
1383;DHT22;685;47.196;11.880;2022-09-25T01:32:10;10.60;99.90
1383;DHT22;685;47.196;11.880;2022-09-25T01:34:44;10.50;99.90
1383;DHT22;685;47.196;11.880;2022-09-25T01:37:19;10.40;99.90
1383;DHT22;685;47.196;11.880;2022-09-25T01:39:55;10.60;99.90
1383;DHT22;685;47.196;11.880;2022-09-25T01:42:26;10.70;99.90
1383;DHT22;685;47.196;11.880;2022-09-25T01:44:58;10.70;99.90
1383;DHT22;685;47.196;11.880;2022-09-25T01:47:28;10.80;99.90
1383;DHT22;685;47.196;11.880;2022-09-25T01:49:58;10.90;99.90
1383;DHT22;685;47.196;11.880;2022-09-25T01:52:31;10.90;99.90
1383;DHT22;685;47.196;11.880;2022-09-25T01:55:04;10.90;99.90
1383;DHT22;685;47.196;11.880;2022-09-25T01:57:37;11.00;99.90
1383;DHT22;685;47.196;11.880;2022-09-25T02:00:09;10.90;99.90
1383;DHT22;685;47.196;11.880;2022-09-25T02:02:40;10.90;99.90
1383;DHT22;685;47.196;11.880;2022-09-25T02:05:14;10.80;99.90
1383;DHT22;685;47.196;11.880;2022-09-25T02:07:46;10.80;99.90
1383;DHT22;685;47.196;11.880;2022-09-25T02:10:18;10.80;99.90
1383;DHT22;685;47.196;11.880;2022-09-25T02:12:49;10.90;99.90
1383;DHT22;685;47.196;11.880;2022-09-25T02:15:22;11.00;99.90
1383;DHT22;685;47.196;11.880;2022-09-25T02:17:54;11.00;99.90
1383;DHT22;685;47.196;11.880;2022-09-25T02:20:41;11.00;99.90
1383;DHT22;685;47.196;11.880;2022-09-25T02:23:19;11.00;99.90
1383;DHT22;685;47.196;11.880;2022-09-25T02:25:53;11.10;99.90
1383;DHT22;685;47.196;11.880;2022-09-25T02:28:21;11.00;99.90
1383;DHT22;685;47.196;11.880;2022-09-25T02:30:51;11.00;99.90
1383;DHT22;685;47.196;11.880;2022-09-25T02:33:20;11.00;99.90
1383;DHT22;685;47.196;11.880;2022-09-25T02:35:47;11.00;99.90
1383;DHT22;685;47.196;11.880;2022-09-25T02:38:15;10.90;99.90
1383;DHT22;685;47.196;11.880;2022-09-25T02:40:47;11.00;99.90
1383;DHT22;685;47.196;11.880;2022-09-25T02:43:27;11.00;99.90
1383;DHT22;685;47.196;11.880;2022-09-25T02:46:04;11.10;99.90
1383;DHT22;685;47.196;11.880;2022-09-25T02:48:43;11.00;99.90
1383;DHT22;685;47.196;11.880;2022-09-25T02:51:19;10.90;99.90
1383;DHT22;685;47.196;11.880;2022-09-25T02:53:52;10.90;99.90
1383;DHT22;685;47.196;11.880;2022-09-25T02:56:27;10.90;99.90
1383;DHT22;685;47.196;11.880;2022-09-25T02:58:59;10.90;99.90
1383;DHT22;685;47.196;11.880;2022-09-25T03:01:32;10.90;99.90
1383;DHT22;685;47.196;11.880;2022-09-25T03:04:02;11.00;99.90
1383;DHT22;685;47.196;11.880;2022-09-25T03:06:30;11.00;99.90
1383;DHT22;685;47.196;11.880;2022-09-25T03:08:58;11.00;99.90
1383;DHT22;685;47.196;11.880;2022-09-25T03:11:26;10.90;99.90
1383;DHT22;685;47.196;11.880;2022-09-25T03:13:57;10.60;99.90
1383;DHT22;685;47.196;11.880;2022-09-25T03:16:32;10.30;99.90
1383;DHT22;685;47.196;11.880;2022-09-25T03:19:00;10.30;99.90
1383;DHT22;685;47.196;11.880;2022-09-25T03:21:27;10.60;99.90
1383;DHT22;685;47.196;11.880;2022-09-25T03:23:54;10.60;99.90
1383;DHT22;685;47.196;11.880;2022-09-25T03:26:23;10.70;99.90
1383;DHT22;685;47.196;11.880;2022-09-25T03:28:50;10.80;99.90
1383;DHT22;685;47.196;11.880;2022-09-25T03:31:18;10.80;99.90
1383;DHT22;685;47.196;11.880;2022-09-25T03:33:46;10.70;99.90
1383;DHT22;685;47.196;11.880;2022-09-25T03:36:15;10.60;99.90
1383;DHT22;685;47.196;11.880;2022-09-25T03:38:43;10.40;99.90
1383;DHT22;685;47.196;11.880;2022-09-25T03:41:13;10.20;99.90
1383;DHT22;685;47.196;11.880;2022-09-25T03:43:42;10.40;99.90
1383;DHT22;685;47.196;11.880;2022-09-25T03:46:12;10.50;99.90
1383;DHT22;685;47.196;11.880;2022-09-25T03:48:39;10.60;99.90
1383;DHT22;685;47.196;11.880;2022-09-25T03:51:08;10.50;99.90
1383;DHT22;685;47.196;11.880;2022-09-25T03:53:36;10.60;99.90
1383;DHT22;685;47.196;11.880;2022-09-25T03:56:05;10.50;99.90
1383;DHT22;685;47.196;11.880;2022-09-25T03:58:33;10.40;99.90
1383;DHT22;685;47.196;11.880;2022-09-25T04:01:00;10.30;99.90
1383;DHT22;685;47.196;11.880;2022-09-25T04:03:29;10.40;99.90
1383;DHT22;685;47.196;11.880;2022-09-25T04:05:57;10.50;99.90
1383;DHT22;685;47.196;11.880;2022-09-25T04:08:26;10.50;99.90
1383;DHT22;685;47.196;11.880;2022-09-25T04:10:54;10.50;99.90
1383;DHT22;685;47.196;11.880;2022-09-25T04:13:24;10.60;99.90
1383;DHT22;685;47.196;11.880;2022-09-25T04:15:51;10.60;99.90
1383;DHT22;685;47.196;11.880;2022-09-25T04:18:18;10.30;99.90
1383;DHT22;685;47.196;11.880;2022-09-25T04:20:45;10.10;99.90
1383;DHT22;685;47.196;11.880;2022-09-25T04:23:12;10.20;99.90
1383;DHT22;685;47.196;11.880;2022-09-25T04:25:40;10.30;99.90
1383;DHT22;685;47.196;11.880;2022-09-25T04:28:07;10.50;99.90
1383;DHT22;685;47.196;11.880;2022-09-25T04:30:35;10.50;99.90
1383;DHT22;685;47.196;11.880;2022-09-25T04:33:02;10.50;99.90
1383;DHT22;685;47.196;11.880;2022-09-25T04:35:46;10.60;99.90
1383;DHT22;685;47.196;11.880;2022-09-25T04:38:13;10.70;99.90
1383;DHT22;685;47.196;11.880;2022-09-25T04:40:41;10.60;99.90
1383;DHT22;685;47.196;11.880;2022-09-25T04:43:10;10.40;99.90
1383;DHT22;685;47.196;11.880;2022-09-25T04:45:37;10.50;99.90
1383;DHT22;685;47.196;11.880;2022-09-25T04:48:04;10.50;99.90
1383;DHT22;685;47.196;11.880;2022-09-25T04:50:32;10.60;99.90
1383;DHT22;685;47.196;11.880;2022-09-25T04:53:00;10.60;99.90
1383;DHT22;685;47.196;11.880;2022-09-25T04:55:27;10.60;99.90
1383;DHT22;685;47.196;11.880;2022-09-25T04:57:57;10.50;99.90
1383;DHT22;685;47.196;11.880;2022-09-25T05:00:26;10.60;99.90
1383;DHT22;685;47.196;11.880;2022-09-25T05:02:54;10.60;99.90
1383;DHT22;685;47.196;11.880;2022-09-25T05:05:21;10.50;99.90
1383;DHT22;685;47.196;11.880;2022-09-25T05:07:56;10.50;99.90
1383;DHT22;685;47.196;11.880;2022-09-25T05:10:24;10.60;99.90
1383;DHT22;685;47.196;11.880;2022-09-25T05:12:55;10.40;99.90
1383;DHT22;685;47.196;11.880;2022-09-25T05:15:23;10.30;99.90
1383;DHT22;685;47.196;11.880;2022-09-25T05:17:58;10.40;99.90
1383;DHT22;685;47.196;11.880;2022-09-25T05:20:25;10.40;99.90
1383;DHT22;685;47.196;11.880;2022-09-25T05:22:53;10.40;99.90
1383;DHT22;685;47.196;11.880;2022-09-25T05:25:21;10.50;99.90
1383;DHT22;685;47.196;11.880;2022-09-25T05:27:50;10.60;99.90
1383;DHT22;685;47.196;11.880;2022-09-25T05:30:20;10.60;99.90
1383;DHT22;685;47.196;11.880;2022-09-25T05:32:47;10.60;99.90
1383;DHT22;685;47.196;11.880;2022-09-25T05:35:16;10.40;99.90
1383;DHT22;685;47.196;11.880;2022-09-25T05:37:43;10.30;99.90
1383;DHT22;685;47.196;11.880;2022-09-25T05:40:10;10.30;99.90
1383;DHT22;685;47.196;11.880;2022-09-25T05:42:37;10.30;99.90
1383;DHT22;685;47.196;11.880;2022-09-25T05:45:04;10.50;99.90
1383;DHT22;685;47.196;11.880;2022-09-25T05:47:33;10.40;99.90
1383;DHT22;685;47.196;11.880;2022-09-25T05:50:00;10.40;99.90
1383;DHT22;685;47.196;11.880;2022-09-25T05:52:29;10.50;99.90
1383;DHT22;685;47.196;11.880;2022-09-25T05:54:56;10.60;99.90
1383;DHT22;685;47.196;11.880;2022-09-25T05:57:23;10.60;99.90
1383;DHT22;685;47.196;11.880;2022-09-25T05:59:50;10.60;99.90
1383;DHT22;685;47.196;11.880;2022-09-25T06:02:17;10.60;99.90
1383;DHT22;685;47.196;11.880;2022-09-25T06:04:45;10.40;99.90
1383;DHT22;685;47.196;11.880;2022-09-25T06:07:12;10.20;99.90
1383;DHT22;685;47.196;11.880;2022-09-25T06:09:39;10.10;99.90
1383;DHT22;685;47.196;11.880;2022-09-25T06:12:06;10.20;99.90
1383;DHT22;685;47.196;11.880;2022-09-25T06:14:32;10.40;99.90
1383;DHT22;685;47.196;11.880;2022-09-25T06:17:01;10.40;99.90
1383;DHT22;685;47.196;11.880;2022-09-25T06:19:29;10.50;99.90
1383;DHT22;685;47.196;11.880;2022-09-25T06:21:57;10.50;99.90
1383;DHT22;685;47.196;11.880;2022-09-25T06:24:24;10.50;99.90
1383;DHT22;685;47.196;11.880;2022-09-25T06:26:51;10.50;99.90
1383;DHT22;685;47.196;11.880;2022-09-25T06:29:18;10.60;99.90
1383;DHT22;685;47.196;11.880;2022-09-25T06:31:45;10.70;99.90
1383;DHT22;685;47.196;11.880;2022-09-25T06:34:12;10.70;99.90
1383;DHT22;685;47.196;11.880;2022-09-25T06:36:39;10.70;99.90
1383;DHT22;685;47.196;11.880;2022-09-25T06:39:08;10.80;99.90
1383;DHT22;685;47.196;11.880;2022-09-25T06:41:35;10.80;99.90
1383;DHT22;685;47.196;11.880;2022-09-25T06:44:02;10.60;99.90
1383;DHT22;685;47.196;11.880;2022-09-25T06:46:29;10.70;99.90
1383;DHT22;685;47.196;11.880;2022-09-25T06:48:56;10.60;99.90
1383;DHT22;685;47.196;11.880;2022-09-25T06:51:24;10.70;99.90
1383;DHT22;685;47.196;11.880;2022-09-25T06:53:57;11.00;99.90
1383;DHT22;685;47.196;11.880;2022-09-25T06:56:25;11.00;99.90
1383;DHT22;685;47.196;11.880;2022-09-25T06:58:52;11.10;99.90
1383;DHT22;685;47.196;11.880;2022-09-25T07:01:19;11.00;99.90
1383;DHT22;685;47.196;11.880;2022-09-25T07:03:46;10.80;99.90
1383;DHT22;685;47.196;11.880;2022-09-25T07:06:15;10.60;99.90
1383;DHT22;685;47.196;11.880;2022-09-25T07:08:43;10.50;99.90
1383;DHT22;685;47.196;11.880;2022-09-25T07:11:14;10.60;99.90
1383;DHT22;685;47.196;11.880;2022-09-25T07:13:42;10.60;99.90
1383;DHT22;685;47.196;11.880;2022-09-25T07:16:12;10.80;99.90
1383;DHT22;685;47.196;11.880;2022-09-25T07:18:39;10.80;99.90
1383;DHT22;685;47.196;11.880;2022-09-25T07:21:08;11.00;99.90
1383;DHT22;685;47.196;11.880;2022-09-25T07:23:36;11.10;99.90
1383;DHT22;685;47.196;11.880;2022-09-25T07:26:05;11.00;99.90
1383;DHT22;685;47.196;11.880;2022-09-25T07:28:32;11.00;99.90
1383;DHT22;685;47.196;11.880;2022-09-25T07:31:11;11.00;99.90
1383;DHT22;685;47.196;11.880;2022-09-25T07:33:38;11.10;99.90
1383;DHT22;685;47.196;11.880;2022-09-25T07:36:05;11.00;99.90
1383;DHT22;685;47.196;11.880;2022-09-25T07:38:32;10.70;99.90
1383;DHT22;685;47.196;11.880;2022-09-25T07:41:03;10.50;99.90
1383;DHT22;685;47.196;11.880;2022-09-25T07:43:30;10.50;99.90
1383;DHT22;685;47.196;11.880;2022-09-25T07:45:58;10.60;99.90
1383;DHT22;685;47.196;11.880;2022-09-25T07:48:26;10.70;99.90
1383;DHT22;685;47.196;11.880;2022-09-25T07:50:58;10.70;99.90
1383;DHT22;685;47.196;11.880;2022-09-25T07:53:25;10.80;99.90
1383;DHT22;685;47.196;11.880;2022-09-25T07:55:55;10.80;99.90
1383;DHT22;685;47.196;11.880;2022-09-25T07:58:22;11.00;99.90
1383;DHT22;685;47.196;11.880;2022-09-25T08:00:50;11.10;99.90
1383;DHT22;685;47.196;11.880;2022-09-25T08:03:17;11.30;99.90
1383;DHT22;685;47.196;11.880;2022-09-25T08:05:46;11.30;99.90
1383;DHT22;685;47.196;11.880;2022-09-25T08:08:13;11.40;99.90
1383;DHT22;685;47.196;11.880;2022-09-25T08:10:40;11.50;99.90
1383;DHT22;685;47.196;11.880;2022-09-25T08:13:07;11.40;99.90
1383;DHT22;685;47.196;11.880;2022-09-25T08:15:34;11.60;99.90
1383;DHT22;685;47.196;11.880;2022-09-25T08:18:01;11.60;99.90
1383;DHT22;685;47.196;11.880;2022-09-25T08:20:28;11.60;99.90
1383;DHT22;685;47.196;11.880;2022-09-25T08:22:56;11.60;99.90
1383;DHT22;685;47.196;11.880;2022-09-25T08:25:24;11.60;99.90
1383;DHT22;685;47.196;11.880;2022-09-25T08:27:50;11.70;99.90
1383;DHT22;685;47.196;11.880;2022-09-25T08:30:17;11.80;99.90
1383;DHT22;685;47.196;11.880;2022-09-25T08:32:44;11.90;99.90
1383;DHT22;685;47.196;11.880;2022-09-25T08:35:11;12.00;99.90
1383;DHT22;685;47.196;11.880;2022-09-25T08:37:40;12.10;99.90
1383;DHT22;685;47.196;11.880;2022-09-25T08:40:16;12.20;99.90
1383;DHT22;685;47.196;11.880;2022-09-25T08:42:46;12.20;99.90
1383;DHT22;685;47.196;11.880;2022-09-25T08:45:23;12.30;99.90
1383;DHT22;685;47.196;11.880;2022-09-25T08:48:16;12.40;99.90
1383;DHT22;685;47.196;11.880;2022-09-25T08:51:02;12.50;99.90
1383;DHT22;685;47.196;11.880;2022-09-25T08:53:32;12.50;99.90
1383;DHT22;685;47.196;11.880;2022-09-25T08:56:02;12.50;99.90
1383;DHT22;685;47.196;11.880;2022-09-25T08:58:50;12.70;99.90
1383;DHT22;685;47.196;11.880;2022-09-25T09:01:21;12.70;99.90
1383;DHT22;685;47.196;11.880;2022-09-25T09:03:53;12.80;99.90
1383;DHT22;685;47.196;11.880;2022-09-25T09:06:24;13.00;99.90
1383;DHT22;685;47.196;11.880;2022-09-25T09:08:55;13.00;99.90
1383;DHT22;685;47.196;11.880;2022-09-25T09:11:29;13.10;99.90
1383;DHT22;685;47.196;11.880;2022-09-25T09:14:01;13.10;99.90
1383;DHT22;685;47.196;11.880;2022-09-25T09:16:35;13.20;99.90
1383;DHT22;685;47.196;11.880;2022-09-25T09:19:05;13.30;99.90
1383;DHT22;685;47.196;11.880;2022-09-25T09:21:34;13.40;99.90
1383;DHT22;685;47.196;11.880;2022-09-25T09:24:08;13.60;99.90
1383;DHT22;685;47.196;11.880;2022-09-25T09:26:52;13.80;99.90
1383;DHT22;685;47.196;11.880;2022-09-25T09:29:35;14.00;99.90
1383;DHT22;685;47.196;11.880;2022-09-25T09:32:21;14.10;99.90
1383;DHT22;685;47.196;11.880;2022-09-25T09:35:01;14.40;99.90
1383;DHT22;685;47.196;11.880;2022-09-25T09:37:39;14.40;99.90
1383;DHT22;685;47.196;11.880;2022-09-25T09:40:20;14.30;99.90
1383;DHT22;685;47.196;11.880;2022-09-25T09:42:57;14.40;99.90
1383;DHT22;685;47.196;11.880;2022-09-25T09:45:35;14.30;99.90
1383;DHT22;685;47.196;11.880;2022-09-25T09:48:11;14.20;99.90
1383;DHT22;685;47.196;11.880;2022-09-25T09:50:43;14.20;99.90
1383;DHT22;685;47.196;11.880;2022-09-25T09:53:20;14.20;99.90
1383;DHT22;685;47.196;11.880;2022-09-25T09:55:52;14.20;99.90
1383;DHT22;685;47.196;11.880;2022-09-25T09:58:22;14.20;99.90
1383;DHT22;685;47.196;11.880;2022-09-25T10:00:51;14.20;99.90
1383;DHT22;685;47.196;11.880;2022-09-25T10:03:21;14.20;99.90
1383;DHT22;685;47.196;11.880;2022-09-25T10:05:50;14.20;99.90
1383;DHT22;685;47.196;11.880;2022-09-25T10:08:18;14.30;99.90
1383;DHT22;685;47.196;11.880;2022-09-25T10:10:48;14.50;99.90
1383;DHT22;685;47.196;11.880;2022-09-25T10:13:21;14.70;99.90
1383;DHT22;685;47.196;11.880;2022-09-25T10:15:51;14.60;99.90
1383;DHT22;685;47.196;11.880;2022-09-25T10:18:20;14.60;99.90
1383;DHT22;685;47.196;11.880;2022-09-25T10:20:54;14.60;99.90
1383;DHT22;685;47.196;11.880;2022-09-25T10:23:34;14.70;99.90
1383;DHT22;685;47.196;11.880;2022-09-25T10:26:01;14.70;99.90
1383;DHT22;685;47.196;11.880;2022-09-25T10:28:31;14.80;99.90
1383;DHT22;685;47.196;11.880;2022-09-25T10:31:00;14.80;99.90
1383;DHT22;685;47.196;11.880;2022-09-25T10:33:29;14.90;99.90
1383;DHT22;685;47.196;11.880;2022-09-25T10:35:57;15.00;99.90
1383;DHT22;685;47.196;11.880;2022-09-25T10:38:32;14.90;99.90
1383;DHT22;685;47.196;11.880;2022-09-25T10:41:02;14.90;99.90
1383;DHT22;685;47.196;11.880;2022-09-25T10:43:31;15.00;99.90
1383;DHT22;685;47.196;11.880;2022-09-25T10:46:06;15.00;99.90
1383;DHT22;685;47.196;11.880;2022-09-25T10:48:35;14.90;99.90
1383;DHT22;685;47.196;11.880;2022-09-25T10:51:20;15.00;99.90
1383;DHT22;685;47.196;11.880;2022-09-25T10:53:49;15.00;99.90
1383;DHT22;685;47.196;11.880;2022-09-25T10:56:21;15.00;99.90
1383;DHT22;685;47.196;11.880;2022-09-25T10:58:55;15.00;99.90
1383;DHT22;685;47.196;11.880;2022-09-25T11:01:29;15.10;99.90
1383;DHT22;685;47.196;11.880;2022-09-25T11:04:03;15.00;99.90
1383;DHT22;685;47.196;11.880;2022-09-25T11:06:33;15.10;99.90
1383;DHT22;685;47.196;11.880;2022-09-25T11:09:04;15.00;99.90
1383;DHT22;685;47.196;11.880;2022-09-25T11:11:34;15.00;99.90
1383;DHT22;685;47.196;11.880;2022-09-25T11:14:04;15.00;99.90
1383;DHT22;685;47.196;11.880;2022-09-25T11:16:50;15.10;99.90
1383;DHT22;685;47.196;11.880;2022-09-25T11:19:24;15.20;99.90
1383;DHT22;685;47.196;11.880;2022-09-25T11:21:58;15.20;99.90
1383;DHT22;685;47.196;11.880;2022-09-25T11:24:34;15.20;99.90
1383;DHT22;685;47.196;11.880;2022-09-25T11:27:10;15.10;99.90
1383;DHT22;685;47.196;11.880;2022-09-25T11:29:46;15.20;99.90
1383;DHT22;685;47.196;11.880;2022-09-25T11:32:20;15.20;99.90
1383;DHT22;685;47.196;11.880;2022-09-25T11:35:02;15.30;99.90
1383;DHT22;685;47.196;11.880;2022-09-25T11:37:36;15.20;99.90
1383;DHT22;685;47.196;11.880;2022-09-25T11:40:25;15.40;99.90
1383;DHT22;685;47.196;11.880;2022-09-25T11:43:15;15.40;99.90
1383;DHT22;685;47.196;11.880;2022-09-25T11:45:48;15.50;99.90
1383;DHT22;685;47.196;11.880;2022-09-25T11:48:21;15.70;99.90
1383;DHT22;685;47.196;11.880;2022-09-25T11:50:58;15.90;99.90
1383;DHT22;685;47.196;11.880;2022-09-25T11:53:33;15.80;99.90
1383;DHT22;685;47.196;11.880;2022-09-25T11:56:14;15.70;99.90
1383;DHT22;685;47.196;11.880;2022-09-25T11:58:51;15.90;99.90
1383;DHT22;685;47.196;11.880;2022-09-25T12:01:31;16.10;99.90
1383;DHT22;685;47.196;11.880;2022-09-25T12:07:23;15.90;99.90
1383;DHT22;685;47.196;11.880;2022-09-25T12:10:03;15.90;99.90
1383;DHT22;685;47.196;11.880;2022-09-25T12:12:39;16.00;99.90
1383;DHT22;685;47.196;11.880;2022-09-25T12:15:16;15.80;99.90
1383;DHT22;685;47.196;11.880;2022-09-25T12:17:53;15.80;99.90
1383;DHT22;685;47.196;11.880;2022-09-25T12:20:25;16.00;99.90
1383;DHT22;685;47.196;11.880;2022-09-25T12:23:01;16.00;99.90
1383;DHT22;685;47.196;11.880;2022-09-25T12:25:52;15.80;99.90
1383;DHT22;685;47.196;11.880;2022-09-25T12:28:29;15.80;99.90
1383;DHT22;685;47.196;11.880;2022-09-25T12:31:07;15.80;99.90
1383;DHT22;685;47.196;11.880;2022-09-25T12:33:46;15.70;99.90
1383;DHT22;685;47.196;11.880;2022-09-25T12:36:19;15.70;99.90
1383;DHT22;685;47.196;11.880;2022-09-25T12:38:53;15.70;99.90
1383;DHT22;685;47.196;11.880;2022-09-25T12:41:27;15.70;99.90
1383;DHT22;685;47.196;11.880;2022-09-25T12:44:03;15.70;99.90
1383;DHT22;685;47.196;11.880;2022-09-25T12:46:36;15.60;99.90
1383;DHT22;685;47.196;11.880;2022-09-25T12:49:11;15.70;99.90
1383;DHT22;685;47.196;11.880;2022-09-25T12:51:42;15.60;99.90
1383;DHT22;685;47.196;11.880;2022-09-25T12:54:18;15.60;99.90
1383;DHT22;685;47.196;11.880;2022-09-25T12:56:52;15.50;99.90
1383;DHT22;685;47.196;11.880;2022-09-25T12:59:24;15.60;99.90
1383;DHT22;685;47.196;11.880;2022-09-25T13:02:00;15.60;99.90
1383;DHT22;685;47.196;11.880;2022-09-25T13:04:53;15.60;99.90
1383;DHT22;685;47.196;11.880;2022-09-25T13:07:27;15.70;99.90
1383;DHT22;685;47.196;11.880;2022-09-25T13:09:59;15.70;99.90
1383;DHT22;685;47.196;11.880;2022-09-25T13:12:32;15.80;99.90
1383;DHT22;685;47.196;11.880;2022-09-25T13:15:03;16.00;99.90
1383;DHT22;685;47.196;11.880;2022-09-25T13:17:34;16.10;99.90
1383;DHT22;685;47.196;11.880;2022-09-25T13:23:11;16.30;99.90
1383;DHT22;685;47.196;11.880;2022-09-25T13:25:41;16.10;99.90
1383;DHT22;685;47.196;11.880;2022-09-25T13:28:16;15.90;99.90
1383;DHT22;685;47.196;11.880;2022-09-25T13:30:57;15.90;99.90
1383;DHT22;685;47.196;11.880;2022-09-25T13:33:25;15.80;99.90
1383;DHT22;685;47.196;11.880;2022-09-25T13:36:06;15.80;99.90
1383;DHT22;685;47.196;11.880;2022-09-25T13:38:40;15.70;99.90
1383;DHT22;685;47.196;11.880;2022-09-25T13:41:28;15.80;99.90
1383;DHT22;685;47.196;11.880;2022-09-25T13:47:37;15.90;99.90
1383;DHT22;685;47.196;11.880;2022-09-25T13:50:24;15.90;99.90
1383;DHT22;685;47.196;11.880;2022-09-25T13:53:20;16.00;99.90
1383;DHT22;685;47.196;11.880;2022-09-25T14:05:04;15.80;99.90
1383;DHT22;685;47.196;11.880;2022-09-25T14:07:32;16.00;99.90
1383;DHT22;685;47.196;11.880;2022-09-25T14:10:00;16.00;99.90
1383;DHT22;685;47.196;11.880;2022-09-25T14:12:36;15.80;99.90
1383;DHT22;685;47.196;11.880;2022-09-25T14:17:55;15.70;99.90
1383;DHT22;685;47.196;11.880;2022-09-25T14:20:31;15.80;99.90
1383;DHT22;685;47.196;11.880;2022-09-25T14:23:01;15.80;99.90
1383;DHT22;685;47.196;11.880;2022-09-25T14:25:31;15.80;99.90
1383;DHT22;685;47.196;11.880;2022-09-25T14:28:01;15.60;99.90
1383;DHT22;685;47.196;11.880;2022-09-25T14:30:29;15.60;99.90
1383;DHT22;685;47.196;11.880;2022-09-25T14:33:20;15.70;99.90
1383;DHT22;685;47.196;11.880;2022-09-25T14:35:58;15.70;99.90
1383;DHT22;685;47.196;11.880;2022-09-25T14:38:42;15.50;99.90
1383;DHT22;685;47.196;11.880;2022-09-25T14:41:26;15.50;99.90
1383;DHT22;685;47.196;11.880;2022-09-25T14:44:18;15.40;99.90
1383;DHT22;685;47.196;11.880;2022-09-25T14:46:51;15.40;99.90
1383;DHT22;685;47.196;11.880;2022-09-25T14:49:23;15.40;99.90
1383;DHT22;685;47.196;11.880;2022-09-25T14:51:53;15.50;99.90
1383;DHT22;685;47.196;11.880;2022-09-25T14:54:24;15.50;99.90
1383;DHT22;685;47.196;11.880;2022-09-25T14:56:54;15.50;99.90
1383;DHT22;685;47.196;11.880;2022-09-25T14:59:29;15.50;99.90
1383;DHT22;685;47.196;11.880;2022-09-25T15:01:58;15.40;99.90
1383;DHT22;685;47.196;11.880;2022-09-25T15:04:30;15.40;99.90
1383;DHT22;685;47.196;11.880;2022-09-25T15:07:00;15.40;99.90
1383;DHT22;685;47.196;11.880;2022-09-25T15:09:30;15.20;99.90
1383;DHT22;685;47.196;11.880;2022-09-25T15:12:09;15.20;99.90
1383;DHT22;685;47.196;11.880;2022-09-25T15:14:40;15.10;99.90
1383;DHT22;685;47.196;11.880;2022-09-25T15:17:22;15.10;99.90
1383;DHT22;685;47.196;11.880;2022-09-25T15:19:49;15.10;99.90
1383;DHT22;685;47.196;11.880;2022-09-25T15:22:19;15.10;99.90
1383;DHT22;685;47.196;11.880;2022-09-25T15:24:50;15.00;99.90
1383;DHT22;685;47.196;11.880;2022-09-25T15:27:17;15.00;99.90
1383;DHT22;685;47.196;11.880;2022-09-25T15:29:46;15.00;99.90
1383;DHT22;685;47.196;11.880;2022-09-25T15:32:17;14.90;99.90
1383;DHT22;685;47.196;11.880;2022-09-25T15:34:44;14.90;99.90
1383;DHT22;685;47.196;11.880;2022-09-25T15:37:19;15.00;99.90
1383;DHT22;685;47.196;11.880;2022-09-25T15:39:51;15.00;99.90
1383;DHT22;685;47.196;11.880;2022-09-25T15:42:18;14.90;99.90
1383;DHT22;685;47.196;11.880;2022-09-25T15:44:45;14.90;99.90
1383;DHT22;685;47.196;11.880;2022-09-25T15:47:50;14.90;99.90
1383;DHT22;685;47.196;11.880;2022-09-25T15:50:21;14.60;99.90
1383;DHT22;685;47.196;11.880;2022-09-25T15:52:53;14.30;99.90
1383;DHT22;685;47.196;11.880;2022-09-25T15:55:21;14.10;99.90
1383;DHT22;685;47.196;11.880;2022-09-25T15:57:49;14.30;99.90
1383;DHT22;685;47.196;11.880;2022-09-25T16:00:19;14.30;99.90
1383;DHT22;685;47.196;11.880;2022-09-25T16:03:09;14.40;99.90
1383;DHT22;685;47.196;11.880;2022-09-25T16:05:56;14.50;99.90
1383;DHT22;685;47.196;11.880;2022-09-25T16:08:30;14.50;99.90
1383;DHT22;685;47.196;11.880;2022-09-25T16:11:13;14.50;99.90
1383;DHT22;685;47.196;11.880;2022-09-25T16:13:43;14.20;99.90
1383;DHT22;685;47.196;11.880;2022-09-25T16:16:19;13.90;99.90
1383;DHT22;685;47.196;11.880;2022-09-25T16:18:47;13.70;99.90
1383;DHT22;685;47.196;11.880;2022-09-25T16:21:24;13.50;99.90
1383;DHT22;685;47.196;11.880;2022-09-25T16:23:57;13.70;99.90
1383;DHT22;685;47.196;11.880;2022-09-25T16:26:26;13.90;99.90
1383;DHT22;685;47.196;11.880;2022-09-25T16:29:00;14.00;99.90
1383;DHT22;685;47.196;11.880;2022-09-25T16:31:28;14.20;99.90
1383;DHT22;685;47.196;11.880;2022-09-25T16:33:55;14.30;99.90
1383;DHT22;685;47.196;11.880;2022-09-25T16:36:26;14.40;99.90
1383;DHT22;685;47.196;11.880;2022-09-25T16:39:24;14.30;99.90
1383;DHT22;685;47.196;11.880;2022-09-25T16:41:52;14.10;99.90
1383;DHT22;685;47.196;11.880;2022-09-25T16:44:20;14.00;99.90
1383;DHT22;685;47.196;11.880;2022-09-25T16:47:09;13.90;99.90
1383;DHT22;685;47.196;11.880;2022-09-25T16:49:37;13.90;99.90
1383;DHT22;685;47.196;11.880;2022-09-25T16:52:05;13.90;99.90
1383;DHT22;685;47.196;11.880;2022-09-25T16:54:36;13.90;99.90
1383;DHT22;685;47.196;11.880;2022-09-25T16:57:03;13.90;99.90